Flight Track Log - Related Links

Times and Time Zones

All times are in EDT time to prevent confusion due to time zone crossing. See the UCA3597 flight status page for this flight to view local times or setup timezone preferences in your user account.

Time Position Orientation Groundspeed Altitude Reporting Facility
EDT Latitude Longitude Course Direction KTS MPH feet Rate Location/Type
Mon 05:49:00 PM 39.2983 -77.3078 19° North  Level Estimated
Mon 05:50:00 PM 39.3613 -77.2803 19° North  Level Estimated
Mon 05:51:00 PM 39.4243 -77.2528 19° North  Level Estimated
Mon 05:52:00 PM 39.4872 -77.2252 19° North  Level Estimated
Mon 05:53:00 PM 39.5501 -77.1976 19° North  Level Estimated
Mon 05:54:00 PM 39.6131 -77.1699 19° North  Level Estimated
Mon 05:55:00 PM 39.6760 -77.1422 19° North  Level Estimated
Mon 05:56:00 PM 39.7389 -77.1144 19° North  Level Estimated
Mon 05:57:00 PM 39.8018 -77.0866 19° North  Level Estimated
Mon 05:58:00 PM 39.8647 -77.0588 19° North  Level Estimated
Mon 05:59:00 PM 39.9276 -77.0308 19° North  Level Estimated
Mon 06:00:00 PM 39.9905 -77.0029 19° North  Level Estimated
Mon 06:01:00 PM 40.0534 -76.9748 19° North  Level Estimated
Mon 06:02:00 PM 40.1163 -76.9467 19° North  Level Estimated
Mon 06:03:00 PM 40.1792 -76.9186 19° North  Level Estimated
Mon 06:04:00 PM 40.2420 -76.8904 19° North  Level Estimated
Mon 06:05:00 PM 40.3049 -76.8622 19° North  Level Estimated
Mon 06:06:00 PM 40.3677 -76.8339 19° North  Level Estimated
Mon 06:07:00 PM 40.4306 -76.8056 19° North  Level Estimated
Mon 06:08:00 PM 40.4934 -76.7772 19° North  Level Estimated
Mon 06:09:00 PM 40.5563 -76.7487 19° North  Level Estimated
Mon 06:10:00 PM 40.6191 -76.7202 19° North  Level Estimated
Mon 06:11:00 PM 40.6819 -76.6917 19° North  Level Estimated
Mon 06:12:00 PM 40.7447 -76.6630 19° North  Level Estimated
Mon 06:13:00 PM 40.8075 -76.6344 19° North  Level Estimated
Mon 06:14:00 PM 40.8703 -76.6057 19° North  Level Estimated
Mon 06:15:00 PM 40.9331 -76.5769 19° North  Level Estimated
Mon 06:16:00 PM 40.9959 -76.5481 19° North  Level Estimated
Mon 06:17:00 PM 41.0587 -76.5192 19° North  Level Estimated
Mon 06:18:00 PM 41.1214 -76.4902 19° North  Level Estimated
Mon 06:19:00 PM 41.1842 -76.4613 19° North  Level Estimated
Mon 06:20:00 PM 41.2470 -76.4322 19° North  Level Estimated
Mon 06:21:00 PM 41.3097 -76.4031 19° North  Level Estimated
Mon 06:22:00 PM 41.3725 -76.3739 19° North  Level Estimated
Mon 06:23:00 PM 41.4352 -76.3447 19° North  Level Estimated
Mon 06:24:00 PM 41.4979 -76.3155 19° North  Level Estimated
Mon 06:25:00 PM 41.5606 -76.2861 19° North  Level Estimated
Mon 06:26:00 PM 41.6233 -76.2567 19° North  Level Estimated
Mon 06:27:00 PM 41.6860 -76.2273 19° North  Level Estimated
Mon 06:28:00 PM 41.7487 -76.1978 19° North  Level Estimated
Mon 06:29:00 PM 41.8114 -76.1682 19° North  Level Estimated
Mon 06:30:00 PM 41.8741 -76.1386 19° North  Level Estimated
Mon 06:31:00 PM 41.9368 -76.1089 19° North  Level Estimated
Mon 06:32:00 PM 41.9994 -76.0792 19° North  Level Estimated
Mon 06:33:00 PM 42.0621 -76.0494 19° North  Level Estimated
Mon 06:34:00 PM 42.1247 -76.0196 19° North  Level Estimated
Mon 06:35:00 PM 42.1874 -75.9897 19° North  Level Estimated
Mon 06:36:00 PM 42.2084 -75.9796 19° North  Level Estimated
Mon 06:37:00 PM 42.2084 -75.9796 35° Northeast  Level Estimated
Mon 06:38:00 PM 42.2084 -75.9796 35° Northeast  Level Estimated
Mon 06:39:00 PM 42.2084 -75.9796 35° Northeast  Level Estimated
Mon 06:40:00 PM 42.2084 -75.9796 35° Northeast  Level Estimated
Mon 06:41:00 PM 42.2084 -75.9796 35° Northeast  Level Estimated
Mon 06:42:00 PM 42.2084 -75.9796 35° Northeast  Level Estimated
Mon 06:43:00 PM 42.2084 -75.9796 35° Northeast  Level Estimated
Mon 06:44:00 PM 42.2084 -75.9796 35° Northeast  Level Estimated
Mon 06:45:00 PM 42.2084 -75.9796 35° Northeast  Level Estimated
Mon 06:46:00 PM 42.2084 -75.9796 35° Northeast  Level Estimated
Mon 06:47:00 PM 42.2084 -75.9796 35° Northeast  Level Estimated
Mon 06:48:00 PM 42.2084 -75.9796 35° Northeast  Level Estimated
Mon 06:49:00 PM 42.2084 -75.9796 35° Northeast  Level Estimated
Mon 06:50:00 PM 42.2084 -75.9796 35° Northeast  Level Estimated
Mon 06:51:00 PM 42.2084 -75.9796 35° Northeast  Level Estimated

Login

Don't have an account? Register now (free) for customized features, flight alerts, and more!